Date,TemperatureHighF,TemperatureAvgF,TemperatureLowF,DewpointHighF,DewpointAvgF,DewpointLowF,HumidityHigh,HumidityAvg,HumidityLow,PressureMaxIn,PressureMinIn,WindSpeedMaxMPH,WindSpeedAvgMPH,GustSpeedMaxMPH,PrecipitationSumIn
2013-5-1,66.1,63.1,59.8,59.3,55.1,52.3,88,76,62,30.18,30.08,19,7,19,0.00
2013-5-2,63.5,60.1,58.4,57.0,55.7,54.0,92,85,77,30.20,30.11,9,7,21,0.00
2013-5-3,60.5,58.3,56.9,56.4,54.9,50.8,94,88,73,30.13,29.98,12,8,25,0.08
2013-5-4,58.0,53.2,49.4,54.4,50.1,40.9,97,90,63,29.99,29.84,26,8,26,1.38
2013-5-5,58.0,53.0,50.8,54.9,47.8,-99.9,96,90,86,29.84,29.74,25,-40,25,1.32
2013-5-6,55.9,39.0,46.1,49.8,3.4,-99.9,96,61,74,29.89,29.77,8,-285,8,0.02
2013-5-7,66.1,51.9,51.0,53.9,28.9,-99.9,96,66,53,29.94,29.84,11,-193,11,0.10
2013-5-8,73.7,61.5,52.9,56.9,49.6,-99.9,96,72,50,30.02,29.92,0,-80,0,0.00
2013-5-9,79.0,66.2,54.4,63.0,55.2,48.9,97,70,43,30.08,29.99,0,0,0,0.00
2013-5-10,76.5,66.5,55.9,64.4,55.7,-99.9,97,78,52,30.06,29.92,5,0,5,0.00
2013-5-11,75.3,67.0,60.7,64.5,60.5,57.3,95,80,59,29.95,29.83,8,0,8,0.02
2013-5-12,67.6,60.7,51.0,60.9,44.9,31.7,95,61,28,30.06,29.88,14,-72,14,0.01
2013-5-13,67.4,56.4,42.8,42.4,33.9,27.1,77,45,24,30.20,30.06,18,1,18,0.00
2013-5-14,76.5,59.4,42.3,56.0,39.4,-99.9,85,58,36,30.25,30.08,13,-10,13,0.00
2013-5-15,84.1,71.7,59.3,59.9,55.5,49.9,86,60,31,30.10,29.97,10,1,10,0.00
2013-5-16,81.1,68.8,59.8,63.8,60.0,56.8,92,75,49,30.06,29.94,8,0,8,0.00
2013-5-17,78.5,69.0,59.0,65.0,59.3,52.6,96,73,41,30.07,29.99,10,0,10,0.01
2013-5-18,73.9,68.0,64.2,66.9,64.2,62.0,97,88,69,30.07,30.00,8,-7,8,0.14
2013-5-19,68.6,59.9,64.3,67.4,39.8,-99.9,97,81,89,30.07,29.97,12,-113,12,1.65
2013-5-20,83.4,63.1,61.8,70.2,46.4,-99.9,99,76,60,30.08,29.96,9,-169,9,0.01
2013-5-21,86.5,58.0,67.1,71.6,11.8,-99.9,97,45,48,30.02,29.85,14,-272,14,0.00
2013-5-22,80.3,72.1,66.6,69.5,65.9,62.1,96,81,63,29.95,29.81,8,-34,8,0.00
2013-5-23,80.9,73.1,66.9,68.2,62.0,52.5,97,71,45,29.92,29.85,13,1,13,0.51
2013-5-24,73.7,66.4,59.6,55.3,48.4,40.3,82,55,31,30.18,29.93,16,1,16,0.00
2013-5-25,76.8,63.1,48.3,50.9,44.1,35.2,81,52,29,30.29,30.15,3,0,3,0.00
2013-5-26,80.3,65.5,52.6,55.1,48.4,41.4,81,56,33,30.25,30.12,11,1,11,0.00
2013-5-27,82.4,70.6,58.7,62.4,57.3,53.2,88,65,42,30.22,30.07,5,0,5,0.00
2013-5-28,81.4,72.8,65.5,64.0,60.3,55.6,83,66,45,30.17,30.08,13,1,13,0.00
2013-5-29,80.1,71.7,63.4,66.2,61.9,57.9,91,72,56,30.20,30.09,14,1,14,0.00
2013-5-30,78.6,72.0,65.6,70.5,64.6,60.4,96,79,57,30.23,30.10,13,2,13,0.00
2013-5-31,81.2,73.7,68.6,67.6,64.7,61.6,90,75,54,30.18,30.05,14,2,14,0.00